createdAt,value
2023-05-08T00:00:16.247Z,101011.84
2023-05-08T00:03:37.239Z,101022.22
2023-05-08T00:07:00.309Z,101014.94
2023-05-08T00:10:22.210Z,101012.13
2023-05-08T00:13:42.122Z,101005.63
2023-05-08T00:17:02.925Z,101007.50
2023-05-08T00:20:23.210Z,101016.09
2023-05-08T00:23:47.129Z,101019.19
2023-05-08T00:27:04.149Z,101018.50
2023-05-08T00:30:27.075Z,101021.03
2023-05-08T00:33:41.213Z,101018.69
2023-05-08T00:36:48.173Z,101018.31
2023-05-08T00:39:55.189Z,101017.78
2023-05-08T00:43:11.725Z,101016.16
2023-05-08T00:46:37.986Z,101016.72
2023-05-08T00:49:52.005Z,101012.47
2023-05-08T00:53:10.990Z,101020.13
2023-05-08T00:56:37.935Z,101013.44
2023-05-08T00:59:56.410Z,101023.22
2023-05-08T01:03:23.425Z,101025.63
2023-05-08T01:06:39.753Z,101024.81
2023-05-08T01:10:03.100Z,101024.41
2023-05-08T01:13:52.388Z,101039.53
2023-05-08T01:17:18.219Z,101042.63
2023-05-08T01:20:32.453Z,101044.53
2023-05-08T01:24:19.184Z,101039.16
2023-05-08T01:27:54.915Z,101049.75
2023-05-08T01:31:15.862Z,101050.50
2023-05-08T01:34:27.066Z,101052.91
2023-05-08T01:37:50.455Z,101046.88
2023-05-08T01:41:16.412Z,101050.28
2023-05-08T01:44:28.116Z,101053.91
2023-05-08T01:47:38.447Z,101058.72
2023-05-08T01:50:49.658Z,101055.03
2023-05-08T01:54:05.918Z,101059.50
2023-05-08T01:57:30.025Z,101057.38
2023-05-08T02:00:55.152Z,101068.25
2023-05-08T02:04:14.957Z,101066.34
2023-05-08T02:07:34.277Z,101064.72
2023-05-08T02:10:52.863Z,101076.41
2023-05-08T02:14:22.034Z,101080.34
2023-05-08T02:17:40.292Z,101081.53
2023-05-08T02:21:05.942Z,101079.47
2023-05-08T02:24:28.107Z,101079.13
2023-05-08T02:27:46.974Z,101070.88
2023-05-08T02:31:08.854Z,101074.00
2023-05-08T02:34:34.826Z,101077.25
2023-05-08T02:37:51.902Z,101075.63
2023-05-08T02:41:16.215Z,101075.50
2023-05-08T02:44:37.165Z,101077.22
2023-05-08T02:48:05.163Z,101074.31
2023-05-08T02:51:50.984Z,101085.88
2023-05-08T02:55:41.681Z,101091.16
2023-05-08T02:59:14.599Z,101084.31
2023-05-08T03:02:57.102Z,101093.06
2023-05-08T03:06:17.175Z,101098.56
2023-05-08T03:09:28.856Z,101091.72
2023-05-08T03:12:43.119Z,101091.16
2023-05-08T03:16:01.822Z,101087.31
2023-05-08T03:19:26.006Z,101091.03
2023-05-08T03:22:44.852Z,101088.13
2023-05-08T03:26:02.661Z,101096.94
2023-05-08T03:29:26.621Z,101095.84
2023-05-08T03:32:48.537Z,101082.34
2023-05-08T03:36:11.758Z,101091.25
2023-05-08T03:39:34.462Z,101098.44
2023-05-08T03:42:56.432Z,101099.47
2023-05-08T03:46:18.483Z,101102.25
2023-05-08T03:49:41.650Z,101110.06
2023-05-08T03:53:01.651Z,101097.16
2023-05-08T03:56:26.026Z,101108.78
2023-05-08T04:05:46.623Z,101112.59
2023-05-08T04:09:25.818Z,101115.66
2023-05-08T04:13:05.242Z,101123.28
2023-05-08T04:16:28.320Z,101126.00
2023-05-08T04:19:53.151Z,101126.81
2023-05-08T04:56:04.753Z,101173.53
2023-05-08T04:59:36.596Z,101177.44
2023-05-08T05:03:03.696Z,101183.47
2023-05-08T05:06:32.661Z,101181.09
2023-05-08T05:09:37.561Z,101191.84
2023-05-08T05:13:02.905Z,101179.59
2023-05-08T05:16:08.640Z,101188.25
2023-05-08T05:19:26.684Z,101193.09
2023-05-08T05:22:41.871Z,101191.19
2023-05-08T05:26:07.601Z,101197.34
2023-05-08T05:29:31.680Z,101198.94
2023-05-08T05:32:48.388Z,101206.53
2023-05-08T05:36:04.355Z,101204.72
2023-05-08T05:39:26.352Z,101201.50
2023-05-08T05:42:41.645Z,101208.63
2023-05-08T05:46:05.501Z,101208.28
2023-05-08T05:49:13.490Z,101210.28
2023-05-08T05:52:20.512Z,101210.22
2023-05-08T05:55:46.759Z,101216.66
2023-05-08T05:59:03.853Z,101226.88
2023-05-08T06:02:29.683Z,101219.03
2023-05-08T06:05:59.849Z,101223.47
2023-05-08T06:09:39.683Z,101215.69
2023-05-08T06:12:58.738Z,101218.25
2023-05-08T06:16:31.686Z,101216.44
2023-05-08T06:19:54.768Z,101213.72
2023-05-08T06:23:27.806Z,101215.09
2023-05-08T06:26:40.783Z,101214.91
2023-05-08T06:29:57.769Z,101214.63
2023-05-08T06:33:12.592Z,101224.72
2023-05-08T06:36:38.352Z,101226.13
2023-05-08T06:40:10.791Z,101219.41
2023-05-08T06:43:20.513Z,101227.91
2023-05-08T06:46:40.310Z,101234.38
2023-05-08T06:49:46.181Z,101234.06
2023-05-08T06:52:51.699Z,101226.38
2023-05-08T06:56:03.630Z,101233.88
2023-05-08T06:59:35.966Z,101232.56
2023-05-08T07:02:58.407Z,101232.63
2023-05-08T07:06:20.119Z,101237.59
2023-05-08T07:09:40.824Z,101238.50
2023-05-08T07:13:04.448Z,101241.94
2023-05-08T07:16:31.027Z,101236.59
2023-05-08T07:19:44.000Z,101239.03
2023-05-08T07:23:44.812Z,101243.97
2023-05-08T07:26:50.807Z,101236.69
2023-05-08T07:30:04.357Z,101234.88
2023-05-08T07:33:17.588Z,101233.56
2023-05-08T07:36:41.571Z,101238.13
2023-05-08T07:40:06.002Z,101245.13
2023-05-08T07:43:14.771Z,101243.56
2023-05-08T07:46:39.190Z,101238.53
2023-05-08T07:49:55.277Z,101238.31
2023-05-08T07:53:14.711Z,101244.78
2023-05-08T07:56:35.544Z,101240.00
2023-05-08T07:59:44.010Z,101242.75
2023-05-08T08:03:08.855Z,101241.56
2023-05-08T08:06:23.900Z,101237.47
2023-05-08T08:09:28.798Z,101236.78
2023-05-08T08:12:37.800Z,101244.84
2023-05-08T08:15:46.324Z,101245.09
2023-05-08T08:18:55.125Z,101239.03
2023-05-08T08:22:02.479Z,101238.53
2023-05-08T08:25:13.938Z,101233.97
2023-05-08T08:28:46.834Z,101233.75
2023-05-08T08:32:19.285Z,101235.00
2023-05-08T08:35:31.000Z,101236.97
2023-05-08T08:38:52.711Z,101226.91
2023-05-08T08:42:07.447Z,101233.13
2023-05-08T08:45:29.527Z,101230.22
2023-05-08T08:48:38.819Z,101233.44
2023-05-08T08:51:53.337Z,101221.84
2023-05-08T08:55:04.710Z,101225.84
2023-05-08T08:58:36.667Z,101233.59
2023-05-08T09:02:01.568Z,101226.91
2023-05-08T09:05:21.993Z,101221.75
2023-05-08T09:08:53.255Z,101211.41
2023-05-08T09:12:16.929Z,101217.69
2023-05-08T09:15:31.989Z,101210.72
2023-05-08T09:18:54.039Z,101214.66
2023-05-08T09:22:11.838Z,101220.41
2023-05-08T09:25:24.368Z,101212.34
2023-05-08T09:28:44.096Z,101215.31
2023-05-08T09:32:05.314Z,101206.50
2023-05-08T09:35:20.859Z,101222.34
2023-05-08T09:38:41.482Z,101217.19
2023-05-08T09:42:06.332Z,101213.78
2023-05-08T09:45:36.091Z,101208.00
2023-05-08T09:49:03.186Z,101211.06
2023-05-08T09:52:17.033Z,101206.59
2023-05-08T09:55:25.635Z,101204.94
2023-05-08T09:58:42.906Z,101194.19
2023-05-08T10:01:51.732Z,101196.88
2023-05-08T10:05:00.967Z,101198.22
2023-05-08T10:08:21.894Z,101186.13
2023-05-08T10:11:34.255Z,101185.00
2023-05-08T10:14:46.072Z,101191.44
2023-05-08T10:18:06.952Z,101177.47
2023-05-08T10:21:21.211Z,101181.81
2023-05-08T10:24:38.123Z,101179.22
2023-05-08T10:28:03.529Z,101164.88
2023-05-08T10:31:12.393Z,101161.75
2023-05-08T10:34:47.198Z,101153.56
2023-05-08T10:38:03.913Z,101163.69
2023-05-08T10:41:21.815Z,101154.25
2023-05-08T10:44:31.420Z,101155.75
2023-05-08T10:48:04.875Z,101153.25
2023-05-08T10:51:43.984Z,101157.28
2023-05-08T10:55:04.161Z,101154.38
2023-05-08T10:58:37.702Z,101150.88
2023-05-08T11:01:57.735Z,101151.25
2023-05-08T11:05:19.897Z,101154.84
2023-05-08T11:08:32.770Z,101143.75
2023-05-08T11:11:55.732Z,101143.81
2023-05-08T11:15:10.883Z,101134.41
2023-05-08T11:18:41.885Z,101137.97
2023-05-08T11:22:15.450Z,101137.69
2023-05-08T11:25:51.530Z,101133.53
2023-05-08T11:29:01.402Z,101143.00
2023-05-08T11:32:11.819Z,101137.59
2023-05-08T11:35:40.570Z,101132.69
2023-05-08T11:39:22.463Z,101126.13
2023-05-08T11:42:51.143Z,101130.84
2023-05-08T11:46:13.231Z,101126.66
2023-05-08T11:49:44.739Z,101124.28
2023-05-08T11:53:04.840Z,101123.59
2023-05-08T11:56:32.029Z,101127.13
2023-05-08T12:05:36.045Z,101123.75
2023-05-08T12:08:49.931Z,101119.94
2023-05-08T12:12:07.928Z,101120.09
2023-05-08T12:15:26.248Z,101117.91
2023-05-08T12:18:40.822Z,101113.41
2023-05-08T12:21:53.638Z,101125.53
2023-05-08T12:25:08.544Z,101123.84
2023-05-08T12:28:25.765Z,101117.66
2023-05-08T12:31:50.717Z,101104.34
2023-05-08T12:35:09.834Z,101120.16
2023-05-08T12:38:32.504Z,101117.78
2023-05-08T12:41:58.478Z,101119.38
2023-05-08T12:45:29.083Z,101111.78
2023-05-08T12:48:43.457Z,101114.97
2023-05-08T12:52:10.102Z,101114.53
2023-05-08T12:55:25.695Z,101114.16
2023-05-08T12:58:56.696Z,101124.03
2023-05-08T13:02:14.718Z,101120.41
2023-05-08T13:05:29.795Z,101123.22
2023-05-08T13:08:51.312Z,101123.72
2023-05-08T13:12:12.657Z,101125.16
2023-05-08T13:15:24.394Z,101125.22
2023-05-08T13:24:00.976Z,101116.13
2023-05-08T13:27:15.056Z,101115.66
2023-05-08T13:30:40.845Z,101114.16
2023-05-08T13:33:47.536Z,101128.00
2023-05-08T13:36:58.191Z,101132.00
2023-05-08T13:40:21.576Z,101131.16
2023-05-08T13:43:59.829Z,101119.84
2023-05-08T13:47:30.709Z,101121.25
2023-05-08T13:51:02.358Z,101114.59
2023-05-08T13:54:20.298Z,101124.25
2023-05-08T13:57:40.600Z,101113.97
2023-05-08T14:01:07.534Z,101123.09
2023-05-08T14:04:25.472Z,101111.38
2023-05-08T14:07:49.212Z,101113.13
2023-05-08T14:11:04.499Z,101117.13
2023-05-08T14:14:36.343Z,101112.34
2023-05-08T14:17:45.686Z,101118.94
2023-05-08T14:20:57.132Z,101118.53
2023-05-08T14:24:23.216Z,101120.53
2023-05-08T14:27:47.432Z,101113.09
2023-05-08T14:31:01.479Z,101117.59
2023-05-08T14:34:06.690Z,101119.03
2023-05-08T14:37:19.294Z,101129.81
2023-05-08T14:40:42.903Z,101136.13
2023-05-08T14:44:06.660Z,101119.13
2023-05-08T14:47:27.514Z,101126.53
2023-05-08T14:50:41.175Z,101124.09
2023-05-08T14:53:48.822Z,101121.38
2023-05-08T14:56:54.515Z,101117.75
2023-05-08T15:00:04.521Z,101128.13
2023-05-08T15:03:17.441Z,101128.38
2023-05-08T15:06:25.806Z,101124.91
2023-05-08T15:09:34.891Z,101125.41
2023-05-08T15:12:44.212Z,101118.75
2023-05-08T15:16:08.494Z,101120.16
2023-05-08T15:19:24.732Z,101129.53
2023-05-08T15:22:32.098Z,101119.13
2023-05-08T15:26:03.117Z,101128.31
2023-05-08T15:29:27.215Z,101119.38
2023-05-08T15:32:51.098Z,101123.66
2023-05-08T15:36:18.358Z,101126.66
2023-05-08T15:39:41.308Z,101126.25
2023-05-08T15:48:36.196Z,101131.69
2023-05-08T15:52:07.362Z,101124.47
2023-05-08T15:55:23.513Z,101123.00
2023-05-08T15:58:32.878Z,101114.53
2023-05-08T16:01:42.298Z,101124.63
2023-05-08T16:04:53.766Z,101122.22
2023-05-08T16:08:12.853Z,101126.75
2023-05-08T16:11:22.212Z,101125.09
2023-05-08T16:14:49.504Z,101127.50
2023-05-08T16:18:21.241Z,101133.84
2023-05-08T16:21:41.036Z,101139.22
2023-05-08T16:25:06.557Z,101140.69
2023-05-08T16:28:33.278Z,101137.00
2023-05-08T16:31:51.378Z,101147.25
2023-05-08T16:35:03.071Z,101153.53
2023-05-08T16:38:27.194Z,101157.81
2023-05-08T16:41:34.816Z,101162.25
2023-05-08T16:44:38.705Z,101162.22
2023-05-08T16:47:54.133Z,101171.31
2023-05-08T16:51:01.402Z,101185.03
2023-05-08T16:59:59.807Z,101194.06
2023-05-08T17:03:06.317Z,101188.47
2023-05-08T17:06:16.718Z,101200.03
2023-05-08T17:09:40.980Z,101213.38
2023-05-08T17:12:45.194Z,101212.94
2023-05-08T17:16:02.010Z,101214.66
2023-05-08T17:19:21.160Z,101230.75
2023-05-08T17:22:38.324Z,101233.53
2023-05-08T17:26:08.917Z,101228.94
2023-05-08T17:29:45.903Z,101237.56
2023-05-08T17:32:52.424Z,101246.91
2023-05-08T17:35:57.581Z,101261.34
2023-05-08T17:39:05.210Z,101262.19
2023-05-08T17:42:13.199Z,101271.66
2023-05-08T17:45:27.860Z,101279.09
2023-05-08T17:48:43.217Z,101280.94
2023-05-08T17:51:58.906Z,101290.31
2023-05-08T17:55:22.105Z,101300.31
2023-05-08T17:58:35.626Z,101305.13
2023-05-08T18:01:52.656Z,101308.81
2023-05-08T18:05:18.862Z,101319.78
2023-05-08T18:08:49.770Z,101329.19
2023-05-08T18:12:18.316Z,101327.97
2023-05-08T18:15:48.295Z,101334.59
2023-05-08T18:18:52.886Z,101337.78
2023-05-08T18:22:10.040Z,101350.22
2023-05-08T18:25:31.738Z,101361.81
2023-05-08T18:28:50.039Z,101360.41
2023-05-08T18:32:13.011Z,101365.06
2023-05-08T18:35:27.798Z,101374.97
2023-05-08T18:38:33.771Z,101369.81
2023-05-08T18:41:44.716Z,101377.56
2023-05-08T18:45:05.426Z,101380.63
2023-05-08T18:48:28.965Z,101394.56
2023-05-08T18:51:53.766Z,101403.81
2023-05-08T18:55:11.546Z,101410.84
2023-05-08T18:58:34.610Z,101408.44
2023-05-08T19:01:51.326Z,101415.81
2023-05-08T19:05:03.252Z,101424.72
2023-05-08T19:08:07.778Z,101428.56
2023-05-08T19:11:11.762Z,101423.22
2023-05-08T19:14:22.606Z,101433.50
2023-05-08T19:17:27.502Z,101436.84
2023-05-08T19:20:34.378Z,101434.16
2023-05-08T19:23:45.760Z,101431.28
2023-05-08T19:26:56.064Z,101432.84
2023-05-08T19:30:06.238Z,101435.88
2023-05-08T19:33:12.141Z,101429.31
2023-05-08T19:36:19.551Z,101436.63
2023-05-08T19:39:24.192Z,101447.53
2023-05-08T19:42:35.459Z,101438.53
2023-05-08T19:45:50.151Z,101441.56
2023-05-08T19:49:06.502Z,101447.84
2023-05-08T19:52:15.922Z,101441.81
2023-05-08T19:55:20.017Z,101440.69
2023-05-08T19:58:46.193Z,101438.91
2023-05-08T20:01:55.340Z,101448.78
2023-05-08T20:08:20.723Z,101448.44
2023-05-08T20:11:27.355Z,101453.66
2023-05-08T20:14:32.509Z,101462.28
2023-05-08T20:17:36.554Z,101460.78
2023-05-08T20:21:00.578Z,101457.75
2023-05-08T20:24:17.751Z,101460.03
2023-05-08T20:27:47.627Z,101451.34
2023-05-08T20:31:12.488Z,101452.50
2023-05-08T20:34:44.461Z,101450.16
2023-05-08T20:38:07.713Z,101454.47
2023-05-08T20:41:30.799Z,101458.69
2023-05-08T20:44:53.937Z,101444.53
2023-05-08T20:47:58.820Z,101452.78
2023-05-08T20:51:14.870Z,101452.66
2023-05-08T20:54:42.347Z,101447.44
2023-05-08T20:58:00.527Z,101447.22
2023-05-08T21:01:08.842Z,101455.44
2023-05-08T21:04:19.306Z,101453.75
2023-05-08T21:07:39.603Z,101451.16
2023-05-08T21:10:54.783Z,101451.81
2023-05-08T21:14:14.100Z,101449.34
2023-05-08T21:17:37.328Z,101443.06
2023-05-08T21:20:59.805Z,101449.22
2023-05-08T21:24:23.489Z,101455.00
2023-05-08T21:27:33.444Z,101443.94
2023-05-08T21:30:42.944Z,101443.72
2023-05-08T21:33:50.467Z,101447.88
2023-05-08T21:36:56.901Z,101452.22
2023-05-08T21:40:19.524Z,101448.97
2023-05-08T21:43:43.406Z,101437.13
2023-05-08T21:47:05.737Z,101436.13
2023-05-08T21:50:23.393Z,101442.13
2023-05-08T21:53:35.318Z,101436.19
2023-05-08T21:56:40.488Z,101432.47
2023-05-08T21:59:51.157Z,101436.63
2023-05-08T22:03:03.590Z,101423.03
2023-05-08T22:06:08.428Z,101431.97
2023-05-08T22:09:22.185Z,101433.09
2023-05-08T22:12:31.982Z,101420.44
2023-05-08T22:15:39.480Z,101429.81
2023-05-08T22:18:44.526Z,101423.06
2023-05-08T22:21:57.101Z,101433.72
2023-05-08T22:25:13.605Z,101422.09
2023-05-08T22:28:36.663Z,101420.97
2023-05-08T22:31:48.777Z,101419.34
2023-05-08T22:34:59.275Z,101412.56
2023-05-08T22:38:22.363Z,101410.13
2023-05-08T22:42:01.156Z,101409.13
2023-05-08T22:45:10.952Z,101414.63
2023-05-08T22:48:31.497Z,101411.34
2023-05-08T22:52:01.226Z,101412.97
2023-05-08T22:55:26.442Z,101406.47
2023-05-08T22:58:35.036Z,101416.78
2023-05-08T23:01:40.008Z,101414.94
2023-05-08T23:04:50.442Z,101420.69
2023-05-08T23:08:14.197Z,101423.88
2023-05-08T23:11:34.050Z,101415.75
2023-05-08T23:14:51.837Z,101413.63
2023-05-08T23:18:10.233Z,101410.38
2023-05-08T23:21:41.677Z,101414.84
2023-05-08T23:24:58.641Z,101397.19
2023-05-08T23:28:29.205Z,101411.88
2023-05-08T23:31:48.960Z,101414.88
2023-05-08T23:35:06.706Z,101409.69
2023-05-08T23:38:23.450Z,101406.97
2023-05-08T23:41:28.758Z,101396.69
2023-05-08T23:44:36.700Z,101394.22
2023-05-08T23:47:48.174Z,101388.53
2023-05-08T23:51:10.353Z,101395.59
2023-05-08T23:54:31.186Z,101388.28
2023-05-08T23:57:48.260Z,101387.97
